sensor_id;sensor_type;location;lat;lon;timestamp;P1;durP1;ratioP1;P2;durP2;ratioP2
19814;SDS011;10067;53.092;8.800;2023-02-03T00:01:59;28.50;;;13.90;;
19814;SDS011;10067;53.092;8.800;2023-02-03T00:04:26;26.47;;;12.83;;
19814;SDS011;10067;53.092;8.800;2023-02-03T00:06:52;21.73;;;12.77;;
19814;SDS011;10067;53.092;8.800;2023-02-03T00:09:19;20.23;;;12.77;;
19814;SDS011;10067;53.092;8.800;2023-02-03T00:11:45;23.83;;;12.20;;
19814;SDS011;10067;53.092;8.800;2023-02-03T00:14:12;22.50;;;11.67;;
19814;SDS011;10067;53.092;8.800;2023-02-03T00:16:42;22.10;;;11.30;;
19814;SDS011;10067;53.092;8.800;2023-02-03T00:19:09;21.97;;;10.33;;
19814;SDS011;10067;53.092;8.800;2023-02-03T00:21:35;27.03;;;11.60;;
19814;SDS011;10067;53.092;8.800;2023-02-03T00:24:01;23.80;;;10.07;;
19814;SDS011;10067;53.092;8.800;2023-02-03T00:26:28;18.63;;;9.60;;
19814;SDS011;10067;53.092;8.800;2023-02-03T00:28:54;20.17;;;9.57;;
19814;SDS011;10067;53.092;8.800;2023-02-03T00:31:22;21.80;;;9.37;;
19814;SDS011;10067;53.092;8.800;2023-02-03T00:33:53;15.77;;;9.57;;
19814;SDS011;10067;53.092;8.800;2023-02-03T00:36:20;16.20;;;9.60;;
19814;SDS011;10067;53.092;8.800;2023-02-03T00:38:46;16.00;;;9.30;;
19814;SDS011;10067;53.092;8.800;2023-02-03T00:41:17;22.67;;;10.27;;
19814;SDS011;10067;53.092;8.800;2023-02-03T00:43:43;17.50;;;8.90;;
19814;SDS011;10067;53.092;8.800;2023-02-03T00:46:10;22.47;;;9.47;;
19814;SDS011;10067;53.092;8.800;2023-02-03T00:48:36;19.10;;;9.00;;
19814;SDS011;10067;53.092;8.800;2023-02-03T00:51:04;18.97;;;8.70;;
19814;SDS011;10067;53.092;8.800;2023-02-03T00:53:31;17.03;;;8.60;;
19814;SDS011;10067;53.092;8.800;2023-02-03T00:55:57;16.63;;;8.27;;
19814;SDS011;10067;53.092;8.800;2023-02-03T00:58:24;18.43;;;8.50;;
19814;SDS011;10067;53.092;8.800;2023-02-03T01:00:50;15.33;;;8.67;;
19814;SDS011;10067;53.092;8.800;2023-02-03T01:03:20;12.73;;;8.30;;
19814;SDS011;10067;53.092;8.800;2023-02-03T01:05:47;15.40;;;6.97;;
19814;SDS011;10067;53.092;8.800;2023-02-03T01:08:14;16.67;;;6.93;;
19814;SDS011;10067;53.092;8.800;2023-02-03T01:10:41;17.70;;;6.63;;
19814;SDS011;10067;53.092;8.800;2023-02-03T01:13:07;16.00;;;6.77;;
19814;SDS011;10067;53.092;8.800;2023-02-03T01:15:33;16.53;;;6.70;;
19814;SDS011;10067;53.092;8.800;2023-02-03T01:18:00;12.80;;;6.17;;
19814;SDS011;10067;53.092;8.800;2023-02-03T01:20:26;14.40;;;5.80;;
19814;SDS011;10067;53.092;8.800;2023-02-03T01:22:53;15.23;;;6.87;;
19814;SDS011;10067;53.092;8.800;2023-02-03T01:25:21;11.17;;;5.90;;
19814;SDS011;10067;53.092;8.800;2023-02-03T01:27:47;10.40;;;6.17;;
19814;SDS011;10067;53.092;8.800;2023-02-03T01:30:13;14.53;;;6.20;;
19814;SDS011;10067;53.092;8.800;2023-02-03T01:32:40;12.57;;;6.23;;
19814;SDS011;10067;53.092;8.800;2023-02-03T01:35:07;10.17;;;5.47;;
19814;SDS011;10067;53.092;8.800;2023-02-03T01:37:33;13.30;;;5.37;;
19814;SDS011;10067;53.092;8.800;2023-02-03T01:40:00;10.07;;;5.17;;
19814;SDS011;10067;53.092;8.800;2023-02-03T01:42:29;13.70;;;5.63;;
19814;SDS011;10067;53.092;8.800;2023-02-03T01:44:57;10.47;;;5.07;;
19814;SDS011;10067;53.092;8.800;2023-02-03T01:47:26;16.37;;;6.40;;
19814;SDS011;10067;53.092;8.800;2023-02-03T01:49:55;11.10;;;5.63;;
19814;SDS011;10067;53.092;8.800;2023-02-03T01:52:22;19.90;;;6.33;;
19814;SDS011;10067;53.092;8.800;2023-02-03T01:54:49;13.30;;;5.93;;
19814;SDS011;10067;53.092;8.800;2023-02-03T01:57:21;13.23;;;5.93;;
19814;SDS011;10067;53.092;8.800;2023-02-03T01:59:50;14.07;;;6.50;;
19814;SDS011;10067;53.092;8.800;2023-02-03T02:02:17;14.13;;;6.77;;
19814;SDS011;10067;53.092;8.800;2023-02-03T02:04:46;17.37;;;6.63;;
19814;SDS011;10067;53.092;8.800;2023-02-03T02:07:16;15.17;;;7.30;;
19814;SDS011;10067;53.092;8.800;2023-02-03T02:09:42;17.23;;;7.77;;
19814;SDS011;10067;53.092;8.800;2023-02-03T02:12:09;13.33;;;6.80;;
19814;SDS011;10067;53.092;8.800;2023-02-03T02:14:35;13.77;;;7.43;;
19814;SDS011;10067;53.092;8.800;2023-02-03T02:17:08;14.60;;;6.73;;
19814;SDS011;10067;53.092;8.800;2023-02-03T02:22:26;15.17;;;6.90;;
19814;SDS011;10067;53.092;8.800;2023-02-03T02:25:02;13.60;;;7.23;;
19814;SDS011;10067;53.092;8.800;2023-02-03T02:27:34;17.73;;;7.30;;
19814;SDS011;10067;53.092;8.800;2023-02-03T02:30:28;15.20;;;7.37;;
19814;SDS011;10067;53.092;8.800;2023-02-03T02:33:10;12.53;;;6.63;;
19814;SDS011;10067;53.092;8.800;2023-02-03T02:35:48;17.33;;;7.30;;
19814;SDS011;10067;53.092;8.800;2023-02-03T02:38:19;15.90;;;7.20;;
19814;SDS011;10067;53.092;8.800;2023-02-03T02:40:49;19.10;;;6.67;;
19814;SDS011;10067;53.092;8.800;2023-02-03T02:43:18;13.03;;;6.93;;
19814;SDS011;10067;53.092;8.800;2023-02-03T02:45:47;14.63;;;6.20;;
19814;SDS011;10067;53.092;8.800;2023-02-03T02:48:17;15.53;;;6.20;;
19814;SDS011;10067;53.092;8.800;2023-02-03T02:50:45;12.50;;;6.03;;
19814;SDS011;10067;53.092;8.800;2023-02-03T02:53:12;15.47;;;5.83;;
19814;SDS011;10067;53.092;8.800;2023-02-03T02:55:40;13.13;;;5.40;;
19814;SDS011;10067;53.092;8.800;2023-02-03T02:58:08;13.80;;;5.63;;
19814;SDS011;10067;53.092;8.800;2023-02-03T03:00:36;17.57;;;5.80;;
19814;SDS011;10067;53.092;8.800;2023-02-03T03:03:16;11.77;;;5.53;;
19814;SDS011;10067;53.092;8.800;2023-02-03T03:05:45;12.77;;;5.03;;
19814;SDS011;10067;53.092;8.800;2023-02-03T03:08:13;10.33;;;4.50;;
19814;SDS011;10067;53.092;8.800;2023-02-03T03:10:40;12.10;;;5.00;;
19814;SDS011;10067;53.092;8.800;2023-02-03T03:13:08;18.73;;;4.97;;
19814;SDS011;10067;53.092;8.800;2023-02-03T03:15:36;12.73;;;5.07;;
19814;SDS011;10067;53.092;8.800;2023-02-03T03:18:04;11.90;;;4.30;;
19814;SDS011;10067;53.092;8.800;2023-02-03T03:20:33;8.83;;;4.30;;
19814;SDS011;10067;53.092;8.800;2023-02-03T03:23:02;9.20;;;4.47;;
19814;SDS011;10067;53.092;8.800;2023-02-03T03:25:31;10.03;;;4.40;;
19814;SDS011;10067;53.092;8.800;2023-02-03T03:28:00;14.90;;;4.97;;
19814;SDS011;10067;53.092;8.800;2023-02-03T03:30:29;11.53;;;4.23;;
19814;SDS011;10067;53.092;8.800;2023-02-03T03:32:57;13.70;;;4.93;;
19814;SDS011;10067;53.092;8.800;2023-02-03T03:35:24;13.73;;;5.33;;
19814;SDS011;10067;53.092;8.800;2023-02-03T03:37:55;11.37;;;5.57;;
19814;SDS011;10067;53.092;8.800;2023-02-03T03:40:24;11.50;;;5.17;;
19814;SDS011;10067;53.092;8.800;2023-02-03T03:42:53;11.43;;;5.27;;
19814;SDS011;10067;53.092;8.800;2023-02-03T03:45:23;14.20;;;6.07;;
19814;SDS011;10067;53.092;8.800;2023-02-03T03:47:50;11.40;;;5.53;;
19814;SDS011;10067;53.092;8.800;2023-02-03T03:50:20;13.00;;;5.67;;
19814;SDS011;10067;53.092;8.800;2023-02-03T03:52:47;15.90;;;5.33;;
19814;SDS011;10067;53.092;8.800;2023-02-03T03:55:16;10.70;;;5.47;;
19814;SDS011;10067;53.092;8.800;2023-02-03T03:57:45;14.60;;;5.33;;
19814;SDS011;10067;53.092;8.800;2023-02-03T04:00:16;20.17;;;6.03;;
19814;SDS011;10067;53.092;8.800;2023-02-03T04:02:44;14.57;;;5.17;;
19814;SDS011;10067;53.092;8.800;2023-02-03T04:05:11;14.50;;;6.20;;
19814;SDS011;10067;53.092;8.800;2023-02-03T04:07:39;14.53;;;6.27;;
19814;SDS011;10067;53.092;8.800;2023-02-03T04:10:10;13.23;;;5.90;;
19814;SDS011;10067;53.092;8.800;2023-02-03T04:12:39;12.70;;;5.97;;
19814;SDS011;10067;53.092;8.800;2023-02-03T04:15:06;12.17;;;5.87;;
19814;SDS011;10067;53.092;8.800;2023-02-03T04:17:32;16.43;;;6.30;;
19814;SDS011;10067;53.092;8.800;2023-02-03T04:20:00;12.37;;;6.40;;
19814;SDS011;10067;53.092;8.800;2023-02-03T04:22:27;14.60;;;6.87;;
19814;SDS011;10067;53.092;8.800;2023-02-03T04:24:53;17.63;;;6.73;;
19814;SDS011;10067;53.092;8.800;2023-02-03T04:27:22;11.33;;;6.17;;
19814;SDS011;10067;53.092;8.800;2023-02-03T04:29:50;14.83;;;6.40;;
19814;SDS011;10067;53.092;8.800;2023-02-03T04:32:17;14.93;;;6.60;;
19814;SDS011;10067;53.092;8.800;2023-02-03T04:34:43;13.47;;;6.70;;
19814;SDS011;10067;53.092;8.800;2023-02-03T04:37:10;14.83;;;5.90;;
19814;SDS011;10067;53.092;8.800;2023-02-03T04:39:36;17.83;;;7.13;;
19814;SDS011;10067;53.092;8.800;2023-02-03T04:42:02;22.30;;;7.70;;
19814;SDS011;10067;53.092;8.800;2023-02-03T04:44:29;20.33;;;6.80;;
19814;SDS011;10067;53.092;8.800;2023-02-03T04:46:56;16.53;;;6.20;;
19814;SDS011;10067;53.092;8.800;2023-02-03T04:49:23;13.23;;;5.83;;
19814;SDS011;10067;53.092;8.800;2023-02-03T04:51:49;24.30;;;6.20;;
19814;SDS011;10067;53.092;8.800;2023-02-03T04:54:16;15.87;;;6.23;;
19814;SDS011;10067;53.092;8.800;2023-02-03T04:56:42;15.83;;;5.70;;
19814;SDS011;10067;53.092;8.800;2023-02-03T04:59:09;15.53;;;5.80;;
19814;SDS011;10067;53.092;8.800;2023-02-03T05:01:35;14.07;;;5.93;;
19814;SDS011;10067;53.092;8.800;2023-02-03T05:04:03;17.47;;;5.90;;
19814;SDS011;10067;53.092;8.800;2023-02-03T05:06:29;16.23;;;5.13;;
19814;SDS011;10067;53.092;8.800;2023-02-03T05:08:56;12.47;;;4.63;;
19814;SDS011;10067;53.092;8.800;2023-02-03T05:11:23;18.17;;;6.93;;
19814;SDS011;10067;53.092;8.800;2023-02-03T05:13:49;13.03;;;5.97;;
19814;SDS011;10067;53.092;8.800;2023-02-03T05:16:16;13.10;;;5.23;;
19814;SDS011;10067;53.092;8.800;2023-02-03T05:18:42;17.20;;;5.77;;
19814;SDS011;10067;53.092;8.800;2023-02-03T05:21:10;14.90;;;6.13;;
19814;SDS011;10067;53.092;8.800;2023-02-03T05:23:36;17.23;;;6.57;;
19814;SDS011;10067;53.092;8.800;2023-02-03T05:26:03;18.43;;;6.17;;
19814;SDS011;10067;53.092;8.800;2023-02-03T05:28:29;19.13;;;5.40;;
19814;SDS011;10067;53.092;8.800;2023-02-03T05:30:56;19.87;;;7.10;;
19814;SDS011;10067;53.092;8.800;2023-02-03T05:33:23;20.23;;;5.60;;
19814;SDS011;10067;53.092;8.800;2023-02-03T05:35:49;21.30;;;6.37;;
19814;SDS011;10067;53.092;8.800;2023-02-03T05:38:17;14.63;;;5.13;;
19814;SDS011;10067;53.092;8.800;2023-02-03T05:40:44;13.17;;;6.00;;
19814;SDS011;10067;53.092;8.800;2023-02-03T05:43:30;17.10;;;5.47;;
19814;SDS011;10067;53.092;8.800;2023-02-03T05:45:58;14.23;;;5.40;;
19814;SDS011;10067;53.092;8.800;2023-02-03T05:48:24;21.97;;;7.17;;
19814;SDS011;10067;53.092;8.800;2023-02-03T05:50:51;19.67;;;7.27;;
19814;SDS011;10067;53.092;8.800;2023-02-03T05:53:18;20.73;;;8.17;;
19814;SDS011;10067;53.092;8.800;2023-02-03T05:55:45;11.43;;;5.27;;
19814;SDS011;10067;53.092;8.800;2023-02-03T05:58:11;21.03;;;5.20;;
19814;SDS011;10067;53.092;8.800;2023-02-03T06:00:38;12.70;;;4.60;;
19814;SDS011;10067;53.092;8.800;2023-02-03T06:03:04;17.00;;;4.83;;
19814;SDS011;10067;53.092;8.800;2023-02-03T06:05:31;13.30;;;4.77;;
19814;SDS011;10067;53.092;8.800;2023-02-03T06:07:59;11.50;;;5.20;;
19814;SDS011;10067;53.092;8.800;2023-02-03T06:10:27;14.97;;;5.10;;
19814;SDS011;10067;53.092;8.800;2023-02-03T06:12:53;14.17;;;5.80;;
19814;SDS011;10067;53.092;8.800;2023-02-03T06:15:20;22.83;;;9.10;;
19814;SDS011;10067;53.092;8.800;2023-02-03T06:17:47;17.13;;;6.07;;
19814;SDS011;10067;53.092;8.800;2023-02-03T06:20:14;17.43;;;5.70;;
19814;SDS011;10067;53.092;8.800;2023-02-03T06:22:41;17.50;;;5.63;;
19814;SDS011;10067;53.092;8.800;2023-02-03T06:25:08;15.47;;;6.80;;
19814;SDS011;10067;53.092;8.800;2023-02-03T06:27:36;18.67;;;7.43;;
19814;SDS011;10067;53.092;8.800;2023-02-03T06:30:02;25.00;;;9.33;;
19814;SDS011;10067;53.092;8.800;2023-02-03T06:32:29;18.00;;;6.90;;
19814;SDS011;10067;53.092;8.800;2023-02-03T06:34:55;24.63;;;7.40;;
19814;SDS011;10067;53.092;8.800;2023-02-03T06:37:22;19.00;;;7.23;;
19814;SDS011;10067;53.092;8.800;2023-02-03T06:39:48;18.17;;;7.47;;
19814;SDS011;10067;53.092;8.800;2023-02-03T06:42:15;21.83;;;7.27;;
19814;SDS011;10067;53.092;8.800;2023-02-03T06:44:43;20.40;;;7.90;;
19814;SDS011;10067;53.092;8.800;2023-02-03T06:47:10;18.10;;;8.13;;
19814;SDS011;10067;53.092;8.800;2023-02-03T06:49:36;23.23;;;5.83;;
19814;SDS011;10067;53.092;8.800;2023-02-03T06:52:03;13.47;;;5.47;;
19814;SDS011;10067;53.092;8.800;2023-02-03T06:54:29;14.60;;;4.93;;
19814;SDS011;10067;53.092;8.800;2023-02-03T06:56:56;10.37;;;4.70;;
19814;SDS011;10067;53.092;8.800;2023-02-03T06:59:24;17.40;;;4.80;;
19814;SDS011;10067;53.092;8.800;2023-02-03T07:01:52;14.63;;;4.93;;
19814;SDS011;10067;53.092;8.800;2023-02-03T07:04:19;16.10;;;4.57;;
19814;SDS011;10067;53.092;8.800;2023-02-03T07:06:45;16.90;;;4.40;;
19814;SDS011;10067;53.092;8.800;2023-02-03T07:09:12;17.77;;;4.93;;
19814;SDS011;10067;53.092;8.800;2023-02-03T07:11:38;22.97;;;8.60;;
19814;SDS011;10067;53.092;8.800;2023-02-03T07:14:05;19.40;;;5.37;;
19814;SDS011;10067;53.092;8.800;2023-02-03T07:16:31;17.87;;;5.43;;
19814;SDS011;10067;53.092;8.800;2023-02-03T07:18:59;18.73;;;6.70;;
19814;SDS011;10067;53.092;8.800;2023-02-03T07:21:26;15.17;;;4.27;;
19814;SDS011;10067;53.092;8.800;2023-02-03T07:23:52;11.33;;;3.60;;
19814;SDS011;10067;53.092;8.800;2023-02-03T07:26:18;11.27;;;3.77;;
19814;SDS011;10067;53.092;8.800;2023-02-03T07:28:47;14.30;;;4.10;;
19814;SDS011;10067;53.092;8.800;2023-02-03T07:31:13;13.77;;;4.23;;
19814;SDS011;10067;53.092;8.800;2023-02-03T07:33:40;12.60;;;3.50;;
19814;SDS011;10067;53.092;8.800;2023-02-03T07:36:08;14.23;;;4.13;;
19814;SDS011;10067;53.092;8.800;2023-02-03T07:38:35;13.70;;;4.03;;
19814;SDS011;10067;53.092;8.800;2023-02-03T07:41:03;15.87;;;5.00;;
19814;SDS011;10067;53.092;8.800;2023-02-03T07:43:29;16.07;;;4.37;;
19814;SDS011;10067;53.092;8.800;2023-02-03T07:45:56;14.43;;;4.17;;
19814;SDS011;10067;53.092;8.800;2023-02-03T07:48:22;11.83;;;4.43;;
19814;SDS011;10067;53.092;8.800;2023-02-03T07:50:49;15.70;;;4.43;;
19814;SDS011;10067;53.092;8.800;2023-02-03T07:53:18;13.13;;;3.73;;
19814;SDS011;10067;53.092;8.800;2023-02-03T07:55:46;16.17;;;4.10;;
19814;SDS011;10067;53.092;8.800;2023-02-03T07:58:12;13.10;;;3.30;;
19814;SDS011;10067;53.092;8.800;2023-02-03T08:00:39;17.07;;;4.73;;
19814;SDS011;10067;53.092;8.800;2023-02-03T08:03:05;14.53;;;3.93;;
19814;SDS011;10067;53.092;8.800;2023-02-03T08:05:32;14.80;;;4.43;;
19814;SDS011;10067;53.092;8.800;2023-02-03T08:07:58;20.60;;;4.90;;
19814;SDS011;10067;53.092;8.800;2023-02-03T08:10:28;22.57;;;4.13;;
19814;SDS011;10067;53.092;8.800;2023-02-03T08:12:55;22.10;;;5.03;;
19814;SDS011;10067;53.092;8.800;2023-02-03T08:15:22;18.37;;;5.03;;
19814;SDS011;10067;53.092;8.800;2023-02-03T08:18:06;18.10;;;4.13;;
19814;SDS011;10067;53.092;8.800;2023-02-03T08:20:52;16.97;;;3.97;;
19814;SDS011;10067;53.092;8.800;2023-02-03T08:23:35;19.77;;;3.80;;
19814;SDS011;10067;53.092;8.800;2023-02-03T08:26:29;15.20;;;3.70;;
19814;SDS011;10067;53.092;8.800;2023-02-03T08:28:58;20.03;;;3.87;;
19814;SDS011;10067;53.092;8.800;2023-02-03T08:31:27;16.83;;;3.80;;
19814;SDS011;10067;53.092;8.800;2023-02-03T08:33:57;14.60;;;3.65;;
19814;SDS011;10067;53.092;8.800;2023-02-03T08:36:24;15.77;;;3.77;;
19814;SDS011;10067;53.092;8.800;2023-02-03T08:38:54;24.07;;;3.63;;
19814;SDS011;10067;53.092;8.800;2023-02-03T08:41:21;20.53;;;4.00;;
19814;SDS011;10067;53.092;8.800;2023-02-03T08:43:52;21.23;;;4.10;;
19814;SDS011;10067;53.092;8.800;2023-02-03T08:46:19;23.02;;;4.25;;
19814;SDS011;10067;53.092;8.800;2023-02-03T08:48:46;18.30;;;3.50;;
19814;SDS011;10067;53.092;8.800;2023-02-03T08:51:13;21.30;;;4.10;;
19814;SDS011;10067;53.092;8.800;2023-02-03T08:53:40;25.73;;;4.43;;
19814;SDS011;10067;53.092;8.800;2023-02-03T08:56:07;15.23;;;3.43;;
19814;SDS011;10067;53.092;8.800;2023-02-03T08:58:34;22.87;;;4.57;;
19814;SDS011;10067;53.092;8.800;2023-02-03T09:01:06;24.07;;;4.77;;
19814;SDS011;10067;53.092;8.800;2023-02-03T09:03:33;21.53;;;4.73;;
19814;SDS011;10067;53.092;8.800;2023-02-03T09:06:00;20.50;;;4.10;;
19814;SDS011;10067;53.092;8.800;2023-02-03T09:08:26;25.85;;;5.13;;
19814;SDS011;10067;53.092;8.800;2023-02-03T09:10:53;26.50;;;4.33;;
19814;SDS011;10067;53.092;8.800;2023-02-03T09:13:19;20.10;;;3.70;;
19814;SDS011;10067;53.092;8.800;2023-02-03T09:15:46;27.73;;;4.43;;
19814;SDS011;10067;53.092;8.800;2023-02-03T09:18:14;25.07;;;5.17;;
19814;SDS011;10067;53.092;8.800;2023-02-03T09:20:41;22.90;;;5.10;;
19814;SDS011;10067;53.092;8.800;2023-02-03T09:23:07;25.17;;;4.83;;
19814;SDS011;10067;53.092;8.800;2023-02-03T09:25:34;21.90;;;3.93;;
19814;SDS011;10067;53.092;8.800;2023-02-03T09:28:00;23.73;;;3.93;;
19814;SDS011;10067;53.092;8.800;2023-02-03T09:30:27;19.87;;;4.67;;
19814;SDS011;10067;53.092;8.800;2023-02-03T09:32:53;21.97;;;4.57;;
19814;SDS011;10067;53.092;8.800;2023-02-03T09:35:22;26.43;;;4.40;;
19814;SDS011;10067;53.092;8.800;2023-02-03T09:37:48;24.43;;;4.83;;
19814;SDS011;10067;53.092;8.800;2023-02-03T09:40:17;21.20;;;4.23;;
19814;SDS011;10067;53.092;8.800;2023-02-03T09:42:51;25.17;;;4.20;;
19814;SDS011;10067;53.092;8.800;2023-02-03T09:45:22;25.43;;;4.60;;
19814;SDS011;10067;53.092;8.800;2023-02-03T09:47:49;24.77;;;4.43;;
19814;SDS011;10067;53.092;8.800;2023-02-03T09:50:19;25.10;;;4.83;;
19814;SDS011;10067;53.092;8.800;2023-02-03T09:52:47;27.80;;;5.53;;
19814;SDS011;10067;53.092;8.800;2023-02-03T09:55:25;27.73;;;5.77;;
19814;SDS011;10067;53.092;8.800;2023-02-03T09:57:53;25.58;;;4.93;;
19814;SDS011;10067;53.092;8.800;2023-02-03T10:00:21;27.20;;;5.03;;
19814;SDS011;10067;53.092;8.800;2023-02-03T10:02:52;25.10;;;4.90;;
19814;SDS011;10067;53.092;8.800;2023-02-03T10:05:21;28.75;;;4.82;;
19814;SDS011;10067;53.092;8.800;2023-02-03T10:07:55;31.75;;;5.13;;
19814;SDS011;10067;53.092;8.800;2023-02-03T10:10:24;30.70;;;5.38;;
19814;SDS011;10067;53.092;8.800;2023-02-03T10:15:49;27.58;;;5.68;;
19814;SDS011;10067;53.092;8.800;2023-02-03T10:18:18;28.77;;;4.82;;
19814;SDS011;10067;53.092;8.800;2023-02-03T10:20:47;29.45;;;5.45;;
19814;SDS011;10067;53.092;8.800;2023-02-03T10:23:17;34.90;;;5.95;;
19814;SDS011;10067;53.092;8.800;2023-02-03T10:25:47;25.38;;;6.10;;
19814;SDS011;10067;53.092;8.800;2023-02-03T10:28:19;23.77;;;5.45;;
19814;SDS011;10067;53.092;8.800;2023-02-03T10:30:47;28.00;;;6.85;;
19814;SDS011;10067;53.092;8.800;2023-02-03T10:33:15;36.53;;;6.93;;
19814;SDS011;10067;53.092;8.800;2023-02-03T10:35:43;34.90;;;6.82;;
19814;SDS011;10067;53.092;8.800;2023-02-03T10:38:12;32.55;;;6.03;;
19814;SDS011;10067;53.092;8.800;2023-02-03T10:40:41;32.03;;;6.25;;
19814;SDS011;10067;53.092;8.800;2023-02-03T10:43:08;33.15;;;6.18;;
19814;SDS011;10067;53.092;8.800;2023-02-03T10:45:52;33.00;;;6.15;;
19814;SDS011;10067;53.092;8.800;2023-02-03T10:48:19;32.75;;;6.13;;
19814;SDS011;10067;53.092;8.800;2023-02-03T10:50:47;33.58;;;6.18;;
19814;SDS011;10067;53.092;8.800;2023-02-03T10:53:24;31.17;;;6.03;;
19814;SDS011;10067;53.092;8.800;2023-02-03T10:55:58;30.98;;;6.10;;
19814;SDS011;10067;53.092;8.800;2023-02-03T10:58:26;31.48;;;7.18;;
19814;SDS011;10067;53.092;8.800;2023-02-03T11:00:53;36.25;;;6.57;;
19814;SDS011;10067;53.092;8.800;2023-02-03T11:03:22;27.77;;;6.85;;
19814;SDS011;10067;53.092;8.800;2023-02-03T11:05:58;26.95;;;5.88;;
19814;SDS011;10067;53.092;8.800;2023-02-03T11:08:28;31.17;;;6.38;;
19814;SDS011;10067;53.092;8.800;2023-02-03T11:10:58;27.17;;;5.32;;
19814;SDS011;10067;53.092;8.800;2023-02-03T11:13:26;33.05;;;6.47;;
19814;SDS011;10067;53.092;8.800;2023-02-03T11:15:54;28.05;;;6.18;;
19814;SDS011;10067;53.092;8.800;2023-02-03T11:21:05;32.03;;;6.57;;
19814;SDS011;10067;53.092;8.800;2023-02-03T11:23:32;38.47;;;6.75;;
19814;SDS011;10067;53.092;8.800;2023-02-03T11:26:00;29.05;;;5.88;;
19814;SDS011;10067;53.092;8.800;2023-02-03T11:28:34;31.88;;;6.50;;
19814;SDS011;10067;53.092;8.800;2023-02-03T11:31:01;31.00;;;6.05;;
19814;SDS011;10067;53.092;8.800;2023-02-03T11:33:27;31.10;;;6.15;;
19814;SDS011;10067;53.092;8.800;2023-02-03T11:35:55;32.75;;;6.13;;
19814;SDS011;10067;53.092;8.800;2023-02-03T11:38:29;30.38;;;6.40;;
19814;SDS011;10067;53.092;8.800;2023-02-03T11:40:59;33.88;;;6.47;;
19814;SDS011;10067;53.092;8.800;2023-02-03T11:43:27;32.10;;;6.43;;
19814;SDS011;10067;53.092;8.800;2023-02-03T11:45:58;28.70;;;7.13;;
19814;SDS011;10067;53.092;8.800;2023-02-03T11:48:26;35.30;;;6.70;;
19814;SDS011;10067;53.092;8.800;2023-02-03T11:50:56;31.85;;;6.10;;
19814;SDS011;10067;53.092;8.800;2023-02-03T11:53:26;34.95;;;6.95;;
19814;SDS011;10067;53.092;8.800;2023-02-03T11:55:57;24.98;;;5.45;;
19814;SDS011;10067;53.092;8.800;2023-02-03T11:58:43;37.40;;;6.18;;
19814;SDS011;10067;53.092;8.800;2023-02-03T12:01:17;37.47;;;6.78;;
19814;SDS011;10067;53.092;8.800;2023-02-03T12:03:54;33.42;;;5.63;;
19814;SDS011;10067;53.092;8.800;2023-02-03T12:06:29;37.17;;;5.97;;
19814;SDS011;10067;53.092;8.800;2023-02-03T12:09:07;26.45;;;5.93;;
19814;SDS011;10067;53.092;8.800;2023-02-03T12:11:44;38.28;;;6.50;;
19814;SDS011;10067;53.092;8.800;2023-02-03T12:14:18;28.48;;;5.47;;
19814;SDS011;10067;53.092;8.800;2023-02-03T12:16:51;26.20;;;5.18;;
19814;SDS011;10067;53.092;8.800;2023-02-03T12:19:23;31.17;;;6.38;;
19814;SDS011;10067;53.092;8.800;2023-02-03T12:21:55;31.27;;;6.07;;
19814;SDS011;10067;53.092;8.800;2023-02-03T12:24:28;32.90;;;6.18;;
19814;SDS011;10067;53.092;8.800;2023-02-03T12:27:07;30.10;;;5.57;;
19814;SDS011;10067;53.092;8.800;2023-02-03T12:29:38;36.80;;;6.43;;
19814;SDS011;10067;53.092;8.800;2023-02-03T12:32:10;26.63;;;5.95;;
19814;SDS011;10067;53.092;8.800;2023-02-03T12:34:40;26.63;;;6.10;;
19814;SDS011;10067;53.092;8.800;2023-02-03T12:37:09;36.13;;;5.40;;
19814;SDS011;10067;53.092;8.800;2023-02-03T12:39:39;26.77;;;5.90;;
19814;SDS011;10067;53.092;8.800;2023-02-03T12:42:11;34.88;;;6.40;;
19814;SDS011;10067;53.092;8.800;2023-02-03T12:44:42;35.10;;;6.25;;
19814;SDS011;10067;53.092;8.800;2023-02-03T12:47:11;32.80;;;6.80;;
19814;SDS011;10067;53.092;8.800;2023-02-03T12:49:40;34.10;;;7.43;;
19814;SDS011;10067;53.092;8.800;2023-02-03T12:52:11;36.30;;;5.97;;
19814;SDS011;10067;53.092;8.800;2023-02-03T12:54:41;31.88;;;6.28;;
19814;SDS011;10067;53.092;8.800;2023-02-03T12:57:12;43.40;;;7.82;;
19814;SDS011;10067;53.092;8.800;2023-02-03T12:59:42;27.65;;;6.32;;
19814;SDS011;10067;53.092;8.800;2023-02-03T13:02:13;28.88;;;5.20;;
19814;SDS011;10067;53.092;8.800;2023-02-03T13:04:42;27.88;;;5.22;;
19814;SDS011;10067;53.092;8.800;2023-02-03T13:07:11;31.45;;;7.75;;
19814;SDS011;10067;53.092;8.800;2023-02-03T13:09:43;32.78;;;5.68;;
19814;SDS011;10067;53.092;8.800;2023-02-03T13:12:15;31.00;;;5.47;;
19814;SDS011;10067;53.092;8.800;2023-02-03T13:14:48;29.15;;;6.28;;
19814;SDS011;10067;53.092;8.800;2023-02-03T13:17:16;27.95;;;5.93;;
19814;SDS011;10067;53.092;8.800;2023-02-03T13:19:46;27.50;;;5.28;;
19814;SDS011;10067;53.092;8.800;2023-02-03T13:22:13;26.10;;;6.00;;
19814;SDS011;10067;53.092;8.800;2023-02-03T13:24:41;22.63;;;5.37;;
19814;SDS011;10067;53.092;8.800;2023-02-03T13:27:12;32.92;;;5.90;;
19814;SDS011;10067;53.092;8.800;2023-02-03T13:29:44;32.75;;;5.50;;
19814;SDS011;10067;53.092;8.800;2023-02-03T13:32:20;25.92;;;5.63;;
19814;SDS011;10067;53.092;8.800;2023-02-03T13:34:54;28.05;;;5.70;;
19814;SDS011;10067;53.092;8.800;2023-02-03T13:37:33;26.90;;;6.22;;
19814;SDS011;10067;53.092;8.800;2023-02-03T13:40:09;28.92;;;5.82;;
19814;SDS011;10067;53.092;8.800;2023-02-03T13:42:38;30.63;;;5.72;;
19814;SDS011;10067;53.092;8.800;2023-02-03T13:45:08;34.10;;;8.35;;
19814;SDS011;10067;53.092;8.800;2023-02-03T13:47:40;47.73;;;13.23;;
19814;SDS011;10067;53.092;8.800;2023-02-03T13:50:15;35.33;;;5.65;;
19814;SDS011;10067;53.092;8.800;2023-02-03T13:52:43;33.17;;;5.67;;
19814;SDS011;10067;53.092;8.800;2023-02-03T13:55:19;28.20;;;5.72;;
19814;SDS011;10067;53.092;8.800;2023-02-03T13:57:50;46.47;;;6.82;;
19814;SDS011;10067;53.092;8.800;2023-02-03T14:03:00;31.40;;;6.77;;
19814;SDS011;10067;53.092;8.800;2023-02-03T14:05:40;32.40;;;6.35;;
19814;SDS011;10067;53.092;8.800;2023-02-03T14:13:33;39.50;;;7.23;;
19814;SDS011;10067;53.092;8.800;2023-02-03T14:16:12;35.90;;;6.63;;
19814;SDS011;10067;53.092;8.800;2023-02-03T14:18:44;25.40;;;5.95;;
19814;SDS011;10067;53.092;8.800;2023-02-03T14:21:12;30.63;;;5.47;;
19814;SDS011;10067;53.092;8.800;2023-02-03T14:26:40;28.67;;;5.70;;
19814;SDS011;10067;53.092;8.800;2023-02-03T14:29:22;36.10;;;8.50;;
19814;SDS011;10067;53.092;8.800;2023-02-03T14:31:58;28.90;;;6.37;;
19814;SDS011;10067;53.092;8.800;2023-02-03T14:34:30;33.27;;;5.70;;
19814;SDS011;10067;53.092;8.800;2023-02-03T14:37:07;32.25;;;6.35;;
19814;SDS011;10067;53.092;8.800;2023-02-03T14:45:15;27.40;;;5.63;;
19814;SDS011;10067;53.092;8.800;2023-02-03T14:47:48;37.13;;;5.47;;
19814;SDS011;10067;53.092;8.800;2023-02-03T14:50:25;32.17;;;5.97;;
19814;SDS011;10067;53.092;8.800;2023-02-03T14:52:59;35.50;;;6.83;;
19814;SDS011;10067;53.092;8.800;2023-02-03T14:55:32;32.57;;;5.77;;
19814;SDS011;10067;53.092;8.800;2023-02-03T14:58:00;34.87;;;6.17;;
19814;SDS011;10067;53.092;8.800;2023-02-03T15:00:29;29.63;;;5.83;;
19814;SDS011;10067;53.092;8.800;2023-02-03T15:03:13;30.30;;;5.80;;
19814;SDS011;10067;53.092;8.800;2023-02-03T15:05:44;32.60;;;5.93;;
19814;SDS011;10067;53.092;8.800;2023-02-03T15:10:56;28.37;;;5.67;;
19814;SDS011;10067;53.092;8.800;2023-02-03T15:13:23;36.90;;;5.53;;